createdAt,value
2022-12-28T00:00:24.603Z,100813.78
2022-12-28T00:03:28.002Z,100798.66
2022-12-28T00:06:29.524Z,100795.25
2022-12-28T00:09:30.993Z,100775.41
2022-12-28T00:12:32.852Z,100767.28
2022-12-28T00:15:36.533Z,100759.28
2022-12-28T00:18:38.017Z,100761.16
2022-12-28T00:21:39.663Z,100752.19
2022-12-28T00:24:41.330Z,100751.47
2022-12-28T00:27:42.815Z,100758.75
2022-12-28T00:30:44.373Z,100747.19
2022-12-28T00:33:46.032Z,100742.75
2022-12-28T00:37:11.093Z,100738.22
2022-12-28T00:40:12.360Z,100736.66
2022-12-28T00:43:13.869Z,100740.34
2022-12-28T00:46:15.473Z,100733.06
2022-12-28T00:49:17.000Z,100720.53
2022-12-28T00:52:18.529Z,100715.09
2022-12-28T00:55:20.047Z,100699.88
2022-12-28T00:58:21.602Z,100710.72
2022-12-28T01:01:24.860Z,100692.72
2022-12-28T01:04:26.454Z,100684.75
2022-12-28T01:07:27.905Z,100678.31
2022-12-28T01:10:30.144Z,100667.63
2022-12-28T01:13:31.674Z,100668.50
2022-12-28T01:16:36.149Z,100661.34
2022-12-28T01:19:37.718Z,100661.53
2022-12-28T01:22:39.424Z,100668.78
2022-12-28T01:25:41.793Z,100650.81
2022-12-28T01:28:43.358Z,100658.94
2022-12-28T01:31:44.884Z,100655.41
2022-12-28T01:34:47.488Z,100662.69
2022-12-28T01:37:48.994Z,100654.69
2022-12-28T01:40:50.508Z,100650.97
2022-12-28T01:43:52.919Z,100643.00
2022-12-28T01:47:04.387Z,100631.16
2022-12-28T01:50:12.707Z,100622.31
2022-12-28T01:53:15.839Z,100628.59
2022-12-28T01:56:17.533Z,100615.06
2022-12-28T01:59:22.231Z,100606.06
2022-12-28T02:02:26.595Z,100588.09
2022-12-28T02:05:36.787Z,100591.66
2022-12-28T02:09:00.045Z,100594.53
2022-12-28T02:12:04.310Z,100581.97
2022-12-28T02:15:06.508Z,100582.81
2022-12-28T02:18:08.766Z,100571.44
2022-12-28T02:21:26.072Z,100567.72
2022-12-28T02:24:33.647Z,100561.47
2022-12-28T02:27:47.136Z,100550.63
2022-12-28T02:31:19.404Z,100547.91
2022-12-28T02:34:31.925Z,100548.94
2022-12-28T02:37:41.395Z,100534.53
2022-12-28T02:40:45.438Z,100539.25
2022-12-28T02:43:47.530Z,100525.84
2022-12-28T02:47:07.797Z,100516.88
2022-12-28T02:50:14.293Z,100520.44
2022-12-28T02:53:48.013Z,100513.84
2022-12-28T02:57:00.254Z,100496.75
2022-12-28T03:00:09.912Z,100488.63
2022-12-28T03:03:23.023Z,100483.09
2022-12-28T03:07:12.666Z,100471.22
2022-12-28T03:10:28.244Z,100460.53
2022-12-28T03:14:17.586Z,100460.06
2022-12-28T03:17:41.493Z,100444.84
2022-12-28T03:21:04.159Z,100440.28
2022-12-28T03:24:26.838Z,100444.84
2022-12-28T03:27:49.155Z,100449.25
2022-12-28T03:31:06.914Z,100439.25
2022-12-28T03:34:14.448Z,100434.84
2022-12-28T03:37:35.346Z,100423.31
2022-12-28T03:40:49.989Z,100425.88
2022-12-28T03:43:56.193Z,100410.63
2022-12-28T03:47:08.447Z,100408.63
2022-12-28T03:50:11.060Z,100414.19
2022-12-28T03:53:14.144Z,100380.81
2022-12-28T03:56:19.995Z,100378.09
2022-12-28T03:59:22.735Z,100358.47
2022-12-28T04:02:26.907Z,100347.66
2022-12-28T04:05:28.722Z,100334.09
2022-12-28T04:08:32.113Z,100323.28
2022-12-28T04:11:34.189Z,100310.56
2022-12-28T04:14:36.499Z,100314.13
2022-12-28T04:17:38.100Z,100291.44
2022-12-28T04:20:39.642Z,100277.03
2022-12-28T04:23:41.549Z,100281.16
2022-12-28T04:26:51.356Z,100278.44
2022-12-28T04:29:52.927Z,100264.06
2022-12-28T04:32:55.803Z,100264.72
2022-12-28T04:36:07.834Z,100247.31
2022-12-28T04:39:09.443Z,100240.91
2022-12-28T04:42:10.892Z,100221.75
2022-12-28T04:45:15.775Z,100233.47
2022-12-28T04:48:21.495Z,100228.72
2022-12-28T04:51:25.985Z,100209.59
2022-12-28T04:54:27.455Z,100238.38
2022-12-28T04:57:28.994Z,100221.13
2022-12-28T05:00:30.593Z,100225.72
2022-12-28T05:03:32.261Z,100210.13
2022-12-28T05:06:34.728Z,100204.53
2022-12-28T05:09:36.195Z,100198.09
2022-12-28T05:12:37.684Z,100189.97
2022-12-28T05:15:39.179Z,100189.00
2022-12-28T05:18:40.969Z,100190.66
2022-12-28T05:21:42.454Z,100187.97
2022-12-28T05:24:43.968Z,100184.41
2022-12-28T05:27:45.457Z,100180.84
2022-12-28T05:30:46.964Z,100189.00
2022-12-28T05:33:49.035Z,100184.56
2022-12-28T05:36:50.494Z,100180.84
2022-12-28T05:39:52.229Z,100167.47
2022-12-28T05:42:53.721Z,100171.19
2022-12-28T05:46:00.603Z,100160.34
2022-12-28T05:49:02.169Z,100164.22
2022-12-28T05:52:03.791Z,100164.38
2022-12-28T05:55:05.701Z,100155.41
2022-12-28T05:58:08.445Z,100156.44
2022-12-28T06:01:09.966Z,100150.13
2022-12-28T06:04:16.883Z,100140.00
2022-12-28T06:07:18.431Z,100125.59
2022-12-28T06:10:19.993Z,100121.88
2022-12-28T06:13:21.476Z,100130.88
2022-12-28T06:16:25.149Z,100113.59
2022-12-28T06:19:26.758Z,100125.28
2022-12-28T06:22:28.514Z,100113.59
2022-12-28T06:25:29.993Z,100101.59
2022-12-28T06:28:31.658Z,100099.91
2022-12-28T06:31:36.071Z,100099.72
2022-12-28T06:34:37.708Z,100105.97
2022-12-28T06:37:39.198Z,100110.56
2022-12-28T06:41:11.564Z,100092.63
2022-12-28T06:44:05.368Z,100100.75
2022-12-28T06:47:06.841Z,100092.63
2022-12-28T06:50:09.236Z,100089.06
2022-12-28T06:53:10.765Z,100090.91
2022-12-28T06:56:32.003Z,100093.63
2022-12-28T06:59:33.470Z,100091.94
2022-12-28T07:02:35.098Z,100085.66
2022-12-28T07:05:36.641Z,100107.34
2022-12-28T07:08:38.553Z,100090.25
2022-12-28T07:11:40.232Z,100094.78
2022-12-28T07:14:41.700Z,100102.06
2022-12-28T07:17:43.234Z,100098.66
2022-12-28T07:20:44.743Z,100086.00
2022-12-28T07:23:46.300Z,100103.25
2022-12-28T07:26:48.659Z,100117.81
2022-12-28T07:29:50.148Z,100103.44
2022-12-28T07:32:51.667Z,100107.13
2022-12-28T07:35:53.177Z,100116.44
2022-12-28T07:38:55.132Z,100093.91
2022-12-28T07:41:56.643Z,100102.03
2022-12-28T07:44:58.116Z,100115.72
2022-12-28T07:47:59.638Z,100114.03
2022-12-28T07:51:12.477Z,100122.19
2022-12-28T07:54:13.959Z,100116.91
2022-12-28T07:57:15.766Z,100119.78
2022-12-28T08:00:18.468Z,100106.25
2022-12-28T08:03:20.267Z,100114.53
2022-12-28T08:06:23.356Z,100114.72
2022-12-28T08:09:24.879Z,100115.69
2022-12-28T08:12:26.366Z,100118.41
2022-12-28T08:15:28.363Z,100116.72
2022-12-28T08:18:30.825Z,100112.28
2022-12-28T08:21:44.710Z,100127.69
2022-12-28T08:24:46.202Z,100105.34
2022-12-28T08:27:47.679Z,100118.03
2022-12-28T08:30:49.264Z,100106.38
2022-12-28T08:33:52.109Z,100116.34
2022-12-28T08:36:55.116Z,100114.63
2022-12-28T08:39:56.583Z,100116.69
2022-12-28T08:43:02.764Z,100111.28
2022-12-28T08:46:07.125Z,100116.84
2022-12-28T08:49:08.822Z,100121.56
2022-12-28T08:52:10.356Z,100120.84
2022-12-28T08:55:11.895Z,100113.59
2022-12-28T08:58:13.383Z,100126.28
2022-12-28T09:01:18.119Z,100125.44
2022-12-28T09:04:21.948Z,100118.31
2022-12-28T09:07:23.528Z,100129.31
2022-12-28T09:10:25.138Z,100127.44
2022-12-28T09:13:27.612Z,100130.16
2022-12-28T09:16:29.287Z,100128.63
2022-12-28T09:19:30.854Z,100132.16
2022-12-28T09:22:32.332Z,100133.03
2022-12-28T09:25:34.212Z,100136.59
2022-12-28T09:28:35.897Z,100135.84
2022-12-28T09:31:38.546Z,100136.72
2022-12-28T09:34:40.228Z,100139.59
2022-12-28T09:37:41.712Z,100134.16
2022-12-28T09:40:44.393Z,100135.84
2022-12-28T09:43:46.281Z,100142.28
2022-12-28T09:46:59.757Z,100141.28
2022-12-28T09:50:34.992Z,100150.41
2022-12-28T09:53:37.082Z,100139.75
2022-12-28T09:56:43.216Z,100150.41
2022-12-28T09:59:47.609Z,100137.03
2022-12-28T10:02:53.983Z,100139.75
2022-12-28T10:05:57.825Z,100139.75
2022-12-28T10:09:02.382Z,100141.59
2022-12-28T10:12:15.734Z,100139.75
2022-12-28T10:15:17.508Z,100125.50
2022-12-28T10:18:24.116Z,100131.63
2022-12-28T10:21:32.371Z,100128.22
2022-12-28T10:24:35.150Z,100129.22
2022-12-28T10:27:36.693Z,100117.56
2022-12-28T10:31:02.676Z,100122.78
2022-12-28T10:34:22.583Z,100120.94
2022-12-28T10:37:26.569Z,100106.56
2022-12-28T10:40:30.961Z,100110.09
2022-12-28T10:43:35.666Z,100110.97
2022-12-28T10:46:37.774Z,100101.97
2022-12-28T10:50:02.834Z,100108.25
2022-12-28T10:53:17.543Z,100095.72
2022-12-28T10:56:33.671Z,100092.16
2022-12-28T10:59:35.182Z,100098.59
2022-12-28T11:02:36.837Z,100090.50
2022-12-28T11:05:38.535Z,100086.06
2022-12-28T11:08:42.326Z,100086.06
2022-12-28T11:11:45.910Z,100086.91
2022-12-28T11:14:47.387Z,100072.53
2022-12-28T11:17:55.484Z,100067.94
2022-12-28T11:20:57.024Z,100066.41
2022-12-28T11:23:58.651Z,100062.72
2022-12-28T11:27:00.178Z,100070.00
2022-12-28T11:30:02.765Z,100073.53
2022-12-28T11:33:10.092Z,100067.28
2022-12-28T11:36:20.960Z,100065.44
2022-12-28T11:39:25.441Z,100069.13
2022-12-28T11:42:39.436Z,100056.59
2022-12-28T11:45:53.419Z,100061.00
2022-12-28T11:48:54.948Z,100055.91
2022-12-28T11:52:15.123Z,100053.91
2022-12-28T11:55:25.309Z,100045.09
2022-12-28T11:58:34.169Z,100040.50
2022-12-28T12:01:42.164Z,100036.97
2022-12-28T12:04:46.184Z,100029.03
2022-12-28T12:07:48.550Z,100031.72
2022-12-28T12:11:29.421Z,100029.88
2022-12-28T12:14:45.665Z,100027.16
2022-12-28T12:17:59.807Z,100017.31
2022-12-28T12:21:13.552Z,100015.63
2022-12-28T12:24:27.899Z,100017.31
2022-12-28T12:27:43.501Z,100008.34
2022-12-28T12:30:46.097Z,100012.09
2022-12-28T12:33:50.393Z,100012.09
2022-12-28T12:37:16.805Z,100012.09
2022-12-28T12:41:08.247Z,100004.81
2022-12-28T12:44:19.037Z,100003.97
2022-12-28T12:47:26.643Z,100005.84
2022-12-28T12:51:05.069Z,99991.28
2022-12-28T12:54:49.023Z,99991.97
2022-12-28T12:57:59.311Z,99986.56
2022-12-28T13:01:39.807Z,99977.25
2022-12-28T13:04:45.814Z,99972.69
2022-12-28T13:07:48.313Z,99964.56
2022-12-28T13:10:50.330Z,99966.25
2022-12-28T13:13:55.580Z,99965.25
2022-12-28T13:16:59.052Z,99950.88
2022-12-28T13:20:20.839Z,99958.13
2022-12-28T13:23:23.893Z,99952.91
2022-12-28T13:26:28.846Z,99948.31
2022-12-28T13:29:39.813Z,99942.91
2022-12-28T13:32:53.465Z,99942.91
2022-12-28T13:36:10.253Z,99943.94
2022-12-28T13:39:14.400Z,99943.94
2022-12-28T13:42:26.090Z,99938.53
2022-12-28T13:45:27.710Z,99945.78
2022-12-28T13:48:31.409Z,99940.34
2022-12-28T13:51:36.981Z,99937.66
2022-12-28T13:54:39.507Z,99938.69
2022-12-28T13:57:48.251Z,99934.94
2022-12-28T14:00:53.395Z,99931.25
2022-12-28T14:04:33.600Z,99932.09
2022-12-28T14:07:29.099Z,99931.25
2022-12-28T14:10:31.070Z,99925.13
2022-12-28T14:13:33.823Z,99927.84
2022-12-28T14:16:36.088Z,99916.19
2022-12-28T14:19:38.341Z,99929.72
2022-12-28T14:22:41.218Z,99927.00
2022-12-28T14:25:43.102Z,99921.75
2022-12-28T14:28:48.344Z,99913.63
2022-12-28T14:31:56.620Z,99918.88
2022-12-28T14:35:00.294Z,99910.06
2022-12-28T14:38:01.900Z,99920.06
2022-12-28T14:41:05.057Z,99919.88
2022-12-28T14:44:21.704Z,99915.47
2022-12-28T14:47:34.256Z,99899.25
2022-12-28T14:50:58.455Z,99910.06
2022-12-28T14:54:11.987Z,99906.53
2022-12-28T14:57:43.499Z,99905.84
2022-12-28T15:00:56.617Z,99905.00
2022-12-28T15:04:01.861Z,99891.47
2022-12-28T15:07:05.230Z,99899.59
2022-12-28T15:10:08.023Z,99906.00
2022-12-28T15:13:09.734Z,99911.41
2022-12-28T15:16:12.798Z,99899.72
2022-12-28T15:19:15.059Z,99901.59
2022-12-28T15:22:16.660Z,99901.75
2022-12-28T15:25:19.292Z,99894.50
2022-12-28T15:28:20.866Z,99895.34
2022-12-28T15:31:23.067Z,99899.03
2022-12-28T15:34:24.643Z,99899.91
2022-12-28T15:37:26.128Z,99892.78
2022-12-28T15:40:27.860Z,99885.50
2022-12-28T15:43:29.406Z,99873.16
2022-12-28T15:46:31.637Z,99866.19
2022-12-28T15:49:33.887Z,99863.81
2022-12-28T15:52:35.515Z,99857.38
2022-12-28T15:55:37.004Z,99859.09
2022-12-28T15:58:38.529Z,99854.53
2022-12-28T16:01:43.517Z,99853.19
2022-12-28T16:04:45.283Z,99853.69
2022-12-28T16:07:46.808Z,99845.25
2022-12-28T16:10:48.306Z,99852.03
2022-12-28T16:13:51.781Z,99857.81
2022-12-28T16:16:53.331Z,99852.06
2022-12-28T16:19:54.820Z,99855.44
2022-12-28T16:22:56.319Z,99832.44
2022-12-28T16:25:58.534Z,99835.66
2022-12-28T16:29:00.898Z,99838.03
2022-12-28T16:32:02.472Z,99826.91
2022-12-28T16:35:04.298Z,99829.94
2022-12-28T16:38:06.135Z,99824.22
2022-12-28T16:41:07.681Z,99814.03
2022-12-28T16:44:17.818Z,99804.59
2022-12-28T16:47:19.301Z,99801.88
2022-12-28T16:50:20.784Z,99805.94
2022-12-28T16:53:24.735Z,99785.13
2022-12-28T16:56:26.512Z,99787.84
2022-12-28T16:59:28.728Z,99796.81
2022-12-28T17:02:30.607Z,99778.69
2022-12-28T17:05:36.542Z,99773.94
2022-12-28T17:08:38.022Z,99782.91
2022-12-28T17:11:39.498Z,99789.16
2022-12-28T17:14:40.975Z,99776.50
2022-12-28T17:17:42.495Z,99776.50
2022-12-28T17:20:44.961Z,99770.88
2022-12-28T17:23:46.425Z,99762.75
2022-12-28T17:26:47.927Z,99751.78
2022-12-28T17:29:49.446Z,99749.06
2022-12-28T17:32:50.959Z,99735.34
2022-12-28T17:35:55.507Z,99744.34
2022-12-28T17:38:57.389Z,99732.63
2022-12-28T17:41:58.850Z,99725.38
2022-12-28T17:45:02.670Z,99732.31
2022-12-28T17:48:07.737Z,99729.41
2022-12-28T17:51:11.542Z,99720.63
2022-12-28T17:54:15.142Z,99702.97
2022-12-28T17:57:17.563Z,99702.63
2022-12-28T18:00:19.246Z,99690.44
2022-12-28T18:03:21.429Z,99680.06
2022-12-28T18:06:23.669Z,99685.34
2022-12-28T18:09:27.913Z,99665.34
2022-12-28T18:12:29.820Z,99665.84
2022-12-28T18:15:33.958Z,99654.50
2022-12-28T18:18:35.484Z,99652.41
2022-12-28T18:21:37.066Z,99656.66
2022-12-28T18:24:38.533Z,99639.19
2022-12-28T18:27:40.065Z,99636.16
2022-12-28T18:30:42.158Z,99640.53
2022-12-28T18:33:43.820Z,99632.25
2022-12-28T18:36:45.429Z,99639.16
2022-12-28T18:39:46.934Z,99621.03
2022-12-28T18:42:48.622Z,99634.41
2022-12-28T18:45:55.904Z,99619.84
2022-12-28T18:48:57.536Z,99611.50
2022-12-28T18:52:01.155Z,99604.25
2022-12-28T18:55:03.458Z,99599.47
2022-12-28T18:58:04.946Z,99597.78
2022-12-28T19:01:25.408Z,99586.78
2022-12-28T19:04:32.005Z,99593.03
2022-12-28T19:07:33.583Z,99588.44
2022-12-28T19:10:35.105Z,99597.41
2022-12-28T19:13:39.049Z,99599.13
2022-12-28T19:16:40.800Z,99591.84
2022-12-28T19:19:42.373Z,99584.53
2022-12-28T19:22:43.834Z,99572.66
2022-12-28T19:25:45.378Z,99554.53
2022-12-28T19:28:47.035Z,99565.38
2022-12-28T19:31:48.587Z,99557.06
2022-12-28T19:34:50.120Z,99554.34
2022-12-28T19:37:51.939Z,99549.59
2022-12-28T19:40:55.222Z,99549.44
2022-12-28T19:43:56.933Z,99553.81
2022-12-28T19:46:58.786Z,99552.44
2022-12-28T19:50:00.413Z,99539.72
2022-12-28T19:53:02.536Z,99535.13
2022-12-28T19:56:08.558Z,99524.13
2022-12-28T19:59:10.090Z,99521.22
2022-12-28T20:02:12.083Z,99524.63
2022-12-28T20:05:13.742Z,99519.03
2022-12-28T20:08:15.264Z,99511.72
2022-12-28T20:11:18.417Z,99510.50
2022-12-28T20:14:24.984Z,99500.50
2022-12-28T20:17:26.948Z,99513.69
2022-12-28T20:20:32.998Z,99499.28
2022-12-28T20:23:42.634Z,99496.41
2022-12-28T20:26:44.133Z,99484.53
2022-12-28T20:29:48.031Z,99478.06
2022-12-28T20:32:49.522Z,99470.97
2022-12-28T20:36:10.604Z,99467.22
2022-12-28T20:39:12.096Z,99458.44
2022-12-28T20:42:33.021Z,99457.22
2022-12-28T20:45:35.030Z,99457.03
2022-12-28T20:48:36.517Z,99450.94
2022-12-28T20:51:38.142Z,99444.50
2022-12-28T20:54:39.627Z,99446.38
2022-12-28T20:57:41.128Z,99440.97
2022-12-28T21:00:42.643Z,99431.94
2022-12-28T21:03:44.568Z,99421.97
2022-12-28T21:06:46.241Z,99416.53
2022-12-28T21:09:50.673Z,99418.38
2022-12-28T21:12:52.204Z,99426.34
2022-12-28T21:15:54.391Z,99402.97
2022-12-28T21:18:56.206Z,99416.53
2022-12-28T21:21:57.732Z,99401.94
2022-12-28T21:24:59.209Z,99404.66
2022-12-28T21:28:00.686Z,99396.34
2022-12-28T21:31:04.775Z,99394.47
2022-12-28T21:34:06.414Z,99396.34
2022-12-28T21:37:26.363Z,99385.50
2022-12-28T21:40:27.845Z,99382.13
2022-12-28T21:43:30.212Z,99375.00
2022-12-28T21:46:31.788Z,99369.56
2022-12-28T21:49:33.312Z,99356.38
2022-12-28T21:52:36.912Z,99353.88
2022-12-28T21:55:44.609Z,99350.50
2022-12-28T21:58:46.421Z,99354.22
2022-12-28T22:02:06.479Z,99348.16
2022-12-28T22:05:28.672Z,99359.19
2022-12-28T22:08:49.959Z,99356.84
2022-12-28T22:12:09.907Z,99351.78
2022-12-28T22:15:39.087Z,99354.50
2022-12-28T22:22:01.929Z,99328.09
2022-12-28T22:25:03.608Z,99341.00
2022-12-28T22:28:05.973Z,99343.06
2022-12-28T22:31:08.525Z,99336.78
2022-12-28T22:34:10.214Z,99338.00
2022-12-28T22:37:13.818Z,99329.22
2022-12-28T22:40:15.784Z,99328.34
2022-12-28T22:43:17.250Z,99323.31
2022-12-28T22:46:20.415Z,99322.47
2022-12-28T22:49:22.006Z,99324.34
2022-12-28T22:52:24.991Z,99315.56
2022-12-28T22:55:26.471Z,99316.78
2022-12-28T22:58:28.526Z,99313.88
2022-12-28T23:01:30.136Z,99304.44
2022-12-28T23:04:31.830Z,99304.59
2022-12-28T23:07:34.511Z,99312.94
2022-12-28T23:10:36.027Z,99313.94
2022-12-28T23:13:37.539Z,99318.72
2022-12-28T23:16:39.080Z,99305.19
2022-12-28T23:20:03.878Z,99289.94
2022-12-28T23:23:23.664Z,99283.00
2022-12-28T23:26:43.708Z,99288.63
2022-12-28T23:29:45.915Z,99292.34
2022-12-28T23:32:48.623Z,99302.53
2022-12-28T23:35:50.190Z,99289.19
2022-12-28T23:38:51.746Z,99282.91
2022-12-28T23:41:53.636Z,99281.44
2022-12-28T23:44:55.156Z,99283.47
2022-12-28T23:47:56.844Z,99271.13
2022-12-28T23:51:07.887Z,99276.56
2022-12-28T23:54:10.498Z,99268.41
2022-12-28T23:57:13.077Z,99256.75
